createdAt,value
2018-02-05T00:01:50.859Z,80.60
2018-02-05T00:04:19.027Z,80.70
2018-02-05T00:06:47.262Z,80.60
2018-02-05T00:09:16.159Z,80.50
2018-02-05T00:11:45.066Z,80.60
2018-02-05T00:14:13.211Z,80.60
2018-02-05T00:16:42.142Z,80.80
2018-02-05T00:19:10.269Z,80.80
2018-02-05T00:21:39.191Z,80.90
2018-02-05T00:24:07.334Z,80.80
2018-02-05T00:26:35.462Z,80.60
2018-02-05T00:29:03.599Z,80.80
2018-02-05T00:31:31.731Z,80.90
2018-02-05T00:34:01.388Z,80.80
2018-02-05T00:36:29.533Z,80.80
2018-02-05T00:38:58.495Z,80.90
2018-02-05T00:41:26.722Z,81.00
2018-02-05T00:43:55.603Z,81.00
2018-02-05T00:46:23.729Z,81.00
2018-02-05T00:48:51.847Z,80.60
2018-02-05T00:51:19.979Z,81.10
2018-02-05T00:53:48.122Z,80.80
2018-02-05T00:56:16.358Z,81.20
2018-02-05T00:58:45.256Z,81.40
2018-02-05T01:01:13.408Z,81.40
2018-02-05T01:03:42.405Z,80.90
2018-02-05T01:06:11.306Z,80.60
2018-02-05T01:08:39.474Z,80.60
2018-02-05T01:11:08.387Z,80.50
2018-02-05T01:13:36.546Z,80.50
2018-02-05T01:16:05.443Z,81.40
2018-02-05T01:18:33.598Z,81.40
2018-02-05T01:21:02.500Z,81.40
2018-02-05T01:23:30.629Z,81.40
2018-02-05T01:25:58.775Z,81.50
2018-02-05T01:28:26.907Z,81.20
2018-02-05T01:30:55.820Z,81.30
2018-02-05T01:33:23.960Z,81.30
2018-02-05T01:35:52.097Z,81.70
2018-02-05T01:38:20.232Z,81.60
2018-02-05T01:40:48.366Z,81.90
2018-02-05T01:43:16.504Z,81.80
2018-02-05T01:45:44.663Z,81.70
2018-02-05T01:48:12.789Z,81.90
2018-02-05T01:50:41.305Z,81.90
2018-02-05T01:53:10.275Z,81.80
2018-02-05T01:55:39.174Z,81.80
2018-02-05T01:58:07.346Z,81.80
2018-02-05T02:00:36.255Z,81.80
2018-02-05T02:03:04.407Z,81.90
2018-02-05T02:05:33.392Z,81.60
2018-02-05T02:08:02.297Z,82.00
2018-02-05T02:10:30.449Z,82.00
2018-02-05T02:12:58.564Z,82.10
2018-02-05T02:15:26.722Z,82.10
2018-02-05T02:17:54.875Z,81.90
2018-02-05T02:20:23.010Z,82.00
2018-02-05T02:22:51.152Z,81.90
2018-02-05T02:25:19.386Z,82.00
2018-02-05T02:27:48.290Z,81.90
2018-02-05T02:30:16.424Z,81.80
2018-02-05T02:32:44.576Z,81.90
2018-02-05T02:35:12.702Z,81.90
2018-02-05T02:37:41.594Z,81.70
2018-02-05T02:40:09.735Z,81.60
2018-02-05T02:42:37.863Z,81.00
2018-02-05T02:45:06.128Z,81.10
2018-02-05T02:47:34.269Z,81.10
2018-02-05T02:50:03.180Z,81.10
2018-02-05T02:52:31.309Z,81.10
2018-02-05T02:54:59.433Z,81.20
2018-02-05T02:57:27.576Z,81.00
2018-02-05T02:59:56.583Z,81.00
2018-02-05T03:02:25.497Z,81.10
2018-02-05T03:04:53.630Z,81.10
2018-02-05T03:07:22.626Z,81.20
2018-02-05T03:09:51.516Z,81.40
2018-02-05T03:12:20.512Z,81.30
2018-02-05T03:14:49.444Z,81.40
2018-02-05T03:17:17.567Z,81.30
2018-02-05T03:19:45.690Z,81.30
2018-02-05T03:22:13.853Z,81.20
2018-02-05T03:24:42.010Z,81.10
2018-02-05T03:27:10.168Z,81.00
2018-02-05T03:29:38.277Z,80.80
2018-02-05T03:32:06.412Z,80.80
2018-02-05T03:34:35.306Z,80.70
2018-02-05T03:37:04.240Z,80.80
2018-02-05T03:39:32.400Z,80.80
2018-02-05T03:42:00.659Z,80.80
2018-02-05T03:44:28.791Z,80.50
2018-02-05T03:46:56.919Z,80.50
2018-02-05T03:49:25.075Z,80.40
2018-02-05T03:51:53.210Z,80.20
2018-02-05T03:54:21.362Z,80.40
2018-02-05T03:56:49.652Z,80.00
2018-02-05T03:59:17.744Z,80.10
2018-02-05T04:01:46.630Z,80.10
2018-02-05T04:04:15.627Z,79.90
2018-02-05T04:06:50.208Z,79.90
2018-02-05T04:09:18.337Z,79.80
2018-02-05T04:11:46.473Z,80.20
2018-02-05T04:14:16.117Z,79.90
2018-02-05T04:16:45.034Z,80.20
2018-02-05T04:19:13.153Z,80.20
2018-02-05T04:21:42.056Z,80.70
2018-02-05T04:24:10.966Z,80.80
2018-02-05T04:26:39.123Z,80.80
2018-02-05T04:29:08.174Z,81.10
2018-02-05T04:31:37.034Z,80.80
2018-02-05T04:34:05.183Z,80.80
2018-02-05T04:36:33.312Z,80.60
2018-02-05T04:39:01.443Z,80.40
2018-02-05T04:41:29.578Z,80.40
2018-02-05T04:43:58.468Z,80.30
2018-02-05T04:46:26.601Z,80.80
2018-02-05T04:48:54.744Z,81.00
2018-02-05T04:51:22.893Z,80.50
2018-02-05T04:53:51.805Z,80.50
2018-02-05T04:56:19.950Z,80.50
2018-02-05T04:58:48.984Z,79.90
2018-02-05T05:01:17.870Z,79.80
2018-02-05T05:03:46.031Z,79.80
2018-02-05T05:06:14.190Z,79.90
2018-02-05T05:08:43.082Z,80.00
2018-02-05T05:11:11.969Z,80.00
2018-02-05T05:13:40.900Z,79.50
2018-02-05T05:16:09.138Z,79.50
2018-02-05T05:18:38.025Z,80.00
2018-02-05T05:21:06.930Z,80.30
2018-02-05T05:23:35.063Z,80.30
2018-02-05T05:26:03.219Z,79.70
2018-02-05T05:28:31.345Z,79.70
2018-02-05T05:30:59.497Z,79.00
2018-02-05T05:33:28.406Z,79.40
2018-02-05T05:35:56.557Z,79.40
2018-02-05T05:38:25.466Z,79.40
2018-02-05T05:40:53.606Z,79.40
2018-02-05T05:43:21.806Z,79.40
2018-02-05T05:45:49.958Z,79.20
2018-02-05T05:48:18.119Z,79.70
2018-02-05T05:50:47.746Z,79.30
2018-02-05T05:53:16.639Z,79.00
2018-02-05T05:55:45.544Z,78.90
2018-02-05T05:58:13.676Z,78.80
2018-02-05T06:00:41.827Z,78.80
2018-02-05T06:03:09.967Z,78.60
2018-02-05T06:05:38.102Z,78.60
2018-02-05T06:08:10.997Z,78.60
2018-02-05T06:10:39.130Z,78.80
2018-02-05T06:13:07.363Z,79.00
2018-02-05T06:15:36.251Z,79.40
2018-02-05T06:18:04.402Z,79.40
2018-02-05T06:20:33.295Z,80.60
2018-02-05T06:23:02.223Z,79.30
2018-02-05T06:25:30.363Z,79.20
2018-02-05T06:27:58.519Z,79.70
2018-02-05T06:30:26.722Z,79.90
2018-02-05T06:32:55.618Z,80.40
2018-02-05T06:35:23.779Z,80.40
2018-02-05T06:37:52.659Z,80.20
2018-02-05T06:40:21.575Z,80.30
2018-02-05T06:42:49.746Z,80.30
2018-02-05T06:45:17.902Z,79.80
2018-02-05T06:47:46.804Z,79.60
2018-02-05T06:50:26.848Z,79.60
2018-02-05T06:53:07.735Z,79.50
2018-02-05T06:55:46.857Z,79.40
2018-02-05T06:58:15.740Z,79.10
2018-02-05T07:00:44.643Z,79.20
2018-02-05T07:03:12.772Z,79.20
2018-02-05T07:05:40.908Z,79.30
2018-02-05T07:08:09.043Z,79.00
2018-02-05T07:10:37.941Z,79.50
2018-02-05T07:13:06.083Z,79.50
2018-02-05T07:15:34.216Z,79.50
2018-02-05T07:18:02.340Z,79.00
2018-02-05T07:20:31.270Z,78.60
2018-02-05T07:22:59.402Z,78.60
2018-02-05T07:25:28.328Z,78.30
2018-02-05T07:27:56.467Z,78.30
2018-02-05T07:30:25.369Z,79.00
2018-02-05T07:32:54.279Z,79.00
2018-02-05T07:35:22.411Z,78.90
2018-02-05T07:37:51.333Z,78.10
2018-02-05T07:40:19.473Z,77.80
2018-02-05T07:42:47.596Z,78.30
2018-02-05T07:45:15.735Z,78.10
2018-02-05T07:47:44.656Z,77.00
2018-02-05T07:50:12.799Z,77.00
2018-02-05T07:52:41.699Z,76.90
2018-02-05T07:55:10.674Z,77.10
2018-02-05T07:57:39.572Z,77.10
2018-02-05T08:00:08.573Z,77.10
2018-02-05T08:02:36.707Z,77.10
2018-02-05T08:05:05.612Z,77.20
2018-02-05T08:07:34.608Z,76.60
2018-02-05T08:10:03.516Z,76.30
2018-02-05T08:12:31.671Z,76.30
2018-02-05T08:15:00.566Z,75.80
2018-02-05T08:17:29.465Z,76.10
2018-02-05T08:19:57.607Z,76.10
2018-02-05T08:22:25.774Z,76.40
2018-02-05T08:24:53.905Z,76.20
2018-02-05T08:27:22.081Z,76.40
2018-02-05T08:29:50.214Z,76.10
2018-02-05T08:32:19.215Z,75.70
2018-02-05T08:34:48.133Z,76.40
2018-02-05T08:37:16.267Z,76.40
2018-02-05T08:39:45.277Z,76.50
2018-02-05T08:42:14.176Z,76.10
2018-02-05T08:44:42.299Z,76.10
2018-02-05T08:47:10.526Z,76.30
2018-02-05T08:49:38.649Z,75.80
2018-02-05T08:52:06.788Z,76.20
2018-02-05T08:54:34.911Z,75.60
2018-02-05T08:57:03.811Z,75.20
2018-02-05T08:59:32.716Z,75.40
2018-02-05T09:02:01.625Z,74.50
2018-02-05T09:04:29.757Z,74.60
2018-02-05T09:06:58.737Z,74.60
2018-02-05T09:09:26.825Z,74.10
2018-02-05T09:11:55.742Z,74.30
2018-02-05T09:14:24.619Z,74.10
2018-02-05T09:16:53.515Z,73.60
2018-02-05T09:19:21.862Z,73.60
2018-02-05T09:21:50.786Z,73.90
2018-02-05T09:24:18.922Z,73.90
2018-02-05T09:26:48.574Z,73.60
2018-02-05T09:29:17.249Z,73.60
2018-02-05T09:31:45.378Z,72.80
2018-02-05T09:34:13.512Z,73.10
2018-02-05T09:36:41.666Z,73.60
2018-02-05T09:39:09.847Z,72.90
2018-02-05T09:41:38.807Z,72.30
2018-02-05T09:44:07.717Z,72.20
2018-02-05T09:46:35.839Z,72.20
2018-02-05T09:49:04.060Z,72.40
2018-02-05T09:51:33.136Z,72.70
2018-02-05T09:54:02.035Z,71.90
2018-02-05T09:56:30.926Z,71.10
2018-02-05T09:58:59.823Z,71.60
2018-02-05T10:01:27.962Z,71.60
2018-02-05T10:03:56.087Z,72.70
2018-02-05T10:06:24.212Z,72.80
2018-02-05T10:08:53.131Z,73.10
2018-02-05T10:11:21.257Z,73.00
2018-02-05T10:13:49.492Z,72.40
2018-02-05T10:16:18.394Z,72.80
2018-02-05T10:18:46.521Z,72.80
2018-02-05T10:21:15.511Z,71.50
2018-02-05T10:23:44.429Z,71.40
2018-02-05T10:26:12.585Z,71.40
2018-02-05T10:28:40.716Z,71.30
2018-02-05T10:31:08.881Z,71.00
2018-02-05T10:33:37.006Z,71.40
2018-02-05T10:36:05.895Z,71.60
2018-02-05T10:38:34.043Z,71.60
2018-02-05T10:41:03.053Z,71.50
2018-02-05T10:43:31.952Z,71.90
2018-02-05T10:46:00.086Z,71.90
2018-02-05T10:48:30.734Z,70.90
2018-02-05T10:50:59.623Z,71.30
2018-02-05T10:53:28.531Z,71.10
2018-02-05T10:55:57.417Z,70.40
2018-02-05T10:58:25.605Z,70.30
2018-02-05T11:00:54.517Z,70.50
2018-02-05T11:03:22.644Z,70.60
2018-02-05T11:05:51.550Z,71.30
2018-02-05T11:08:19.672Z,71.30
2018-02-05T11:10:47.808Z,69.30
2018-02-05T11:13:15.937Z,68.90
2018-02-05T11:15:44.097Z,68.40
2018-02-05T11:18:12.231Z,69.00
2018-02-05T11:20:40.347Z,68.70
2018-02-05T11:23:08.489Z,67.80
2018-02-05T11:25:36.615Z,65.20
2018-02-05T11:28:05.604Z,65.70
2018-02-05T11:30:34.494Z,64.10
2018-02-05T11:33:03.415Z,65.70
2018-02-05T11:35:31.529Z,65.70
2018-02-05T11:37:59.657Z,64.30
2018-02-05T11:40:27.805Z,63.00
2018-02-05T11:42:56.735Z,64.20
2018-02-05T11:45:24.863Z,64.20
2018-02-05T11:47:55.392Z,63.50
2018-02-05T11:50:24.400Z,64.60
2018-02-05T11:52:52.526Z,64.50
2018-02-05T11:55:20.738Z,65.50
2018-02-05T11:57:49.631Z,64.70
2018-02-05T12:00:17.765Z,64.70
2018-02-05T12:02:47.543Z,64.60
2018-02-05T12:05:16.431Z,64.40
2018-02-05T12:07:44.586Z,64.30
2018-02-05T12:10:12.735Z,65.20
2018-02-05T12:12:41.640Z,65.40
2018-02-05T12:15:09.812Z,65.30
2018-02-05T12:17:37.971Z,65.10
2018-02-05T12:20:06.896Z,66.00
2018-02-05T12:22:35.143Z,66.00
2018-02-05T12:25:04.058Z,64.70
2018-02-05T12:27:32.178Z,64.30
2018-02-05T12:30:00.337Z,63.60
2018-02-05T12:32:28.468Z,64.20
2018-02-05T12:34:56.607Z,63.10
2018-02-05T12:37:25.514Z,59.50
2018-02-05T12:39:53.654Z,59.00
2018-02-05T12:42:21.785Z,60.10
2018-02-05T12:44:49.943Z,59.30
2018-02-05T12:47:18.068Z,57.90
2018-02-05T12:49:46.991Z,56.10
2018-02-05T12:52:15.890Z,54.10
2018-02-05T12:54:44.782Z,53.20
2018-02-05T12:57:12.916Z,53.10
2018-02-05T13:02:39.797Z,52.30
2018-02-05T13:05:14.527Z,53.90
2018-02-05T13:07:43.509Z,54.20
2018-02-05T13:10:12.396Z,54.00
2018-02-05T13:12:41.399Z,55.20
2018-02-05T13:15:10.276Z,55.30
2018-02-05T13:17:39.191Z,56.20
2018-02-05T13:20:07.322Z,56.20
2018-02-05T13:22:35.474Z,55.30
2018-02-05T13:25:03.618Z,56.20
2018-02-05T13:27:31.751Z,54.70
2018-02-05T13:29:59.892Z,55.00
2018-02-05T13:32:28.043Z,52.30
2018-02-05T13:34:56.216Z,53.70
2018-02-05T13:37:24.380Z,54.10
2018-02-05T13:39:52.539Z,54.70
2018-02-05T13:42:21.560Z,54.10
2018-02-05T13:44:49.673Z,54.10
2018-02-05T13:47:17.806Z,54.20
2018-02-05T13:49:45.965Z,52.70
2018-02-05T13:52:14.080Z,53.70
2018-02-05T13:54:42.221Z,55.20
2018-02-05T13:57:10.373Z,55.40
2018-02-05T13:59:38.506Z,54.60
2018-02-05T14:02:06.631Z,55.70
2018-02-05T14:04:34.770Z,57.00
2018-02-05T14:07:03.670Z,58.00
2018-02-05T14:09:32.560Z,57.20
2018-02-05T14:12:00.694Z,57.10
2018-02-05T14:14:28.834Z,58.40
2018-02-05T14:16:56.977Z,59.70
2018-02-05T14:19:25.860Z,60.10
2018-02-05T14:21:54.755Z,60.80
2018-02-05T14:24:23.673Z,61.40
2018-02-05T14:26:51.818Z,61.40
2018-02-05T14:29:19.955Z,61.70
2018-02-05T14:31:48.164Z,62.00
2018-02-05T14:34:17.054Z,63.80
2018-02-05T14:36:45.952Z,63.60
2018-02-05T14:39:14.103Z,63.60
2018-02-05T14:41:43.012Z,64.50
2018-02-05T14:44:11.140Z,64.50
2018-02-05T14:46:40.818Z,65.30
2018-02-05T14:49:08.946Z,65.30
2018-02-05T14:51:37.841Z,65.50
2018-02-05T14:54:06.750Z,65.00
2018-02-05T14:56:35.719Z,65.50
2018-02-05T14:59:04.595Z,66.10
2018-02-05T15:01:32.734Z,66.10
2018-02-05T15:04:00.881Z,66.40
2018-02-05T15:06:28.997Z,65.70
2018-02-05T15:08:57.147Z,65.90
2018-02-05T15:11:25.269Z,67.30
2018-02-05T15:13:53.450Z,67.60
2018-02-05T15:16:21.884Z,67.90
2018-02-05T15:18:50.043Z,67.20
2018-02-05T15:21:18.159Z,67.10
2018-02-05T15:23:47.087Z,68.10
2018-02-05T15:26:15.230Z,68.00
2018-02-05T15:28:44.175Z,69.00
2018-02-05T15:31:12.299Z,69.00
2018-02-05T15:33:41.174Z,69.70
2018-02-05T15:36:10.114Z,70.00
2018-02-05T15:38:38.257Z,69.90
2018-02-05T15:41:07.151Z,70.50
2018-02-05T15:43:35.298Z,70.50
2018-02-05T15:46:04.192Z,70.90
2018-02-05T15:48:33.135Z,71.00
2018-02-05T15:51:01.251Z,70.20
2018-02-05T15:53:30.185Z,69.80
2018-02-05T15:55:58.303Z,70.30
2018-02-05T15:58:26.484Z,70.50
2018-02-05T16:00:54.669Z,69.60
2018-02-05T16:03:22.816Z,70.20
2018-02-05T16:05:50.933Z,70.40
2018-02-05T16:08:19.051Z,70.40
2018-02-05T16:10:47.204Z,71.00
2018-02-05T16:13:15.326Z,71.00
2018-02-05T16:15:44.232Z,71.00
2018-02-05T16:18:13.133Z,71.10
2018-02-05T16:20:41.283Z,71.10
2018-02-05T16:23:09.406Z,71.30
2018-02-05T16:25:37.544Z,71.50
2018-02-05T16:28:06.454Z,71.50
2018-02-05T16:30:34.599Z,71.50
2018-02-05T16:33:03.507Z,72.20
2018-02-05T16:35:31.645Z,72.20
2018-02-05T16:37:59.803Z,72.20
2018-02-05T16:40:27.949Z,71.60
2018-02-05T16:42:56.067Z,72.20
2018-02-05T16:45:24.206Z,72.30
2018-02-05T16:47:53.109Z,71.70
2018-02-05T16:50:21.230Z,71.60
2018-02-05T16:52:49.455Z,70.90
2018-02-05T16:55:17.590Z,71.60
2018-02-05T16:57:45.733Z,71.10
2018-02-05T17:00:14.734Z,72.00
2018-02-05T17:02:43.675Z,72.10
2018-02-05T17:05:11.814Z,72.10
2018-02-05T17:07:39.949Z,72.10
2018-02-05T17:10:08.959Z,71.80
2018-02-05T17:12:37.085Z,71.70
2018-02-05T17:15:05.227Z,71.80
2018-02-05T17:17:33.347Z,71.70
2018-02-05T17:20:01.500Z,72.70
2018-02-05T17:22:29.613Z,72.40
2018-02-05T17:24:58.519Z,72.00
2018-02-05T17:27:27.405Z,72.80
2018-02-05T17:29:55.519Z,72.90
2018-02-05T17:32:24.438Z,72.20
2018-02-05T17:34:52.567Z,72.20
2018-02-05T17:37:20.728Z,72.30
2018-02-05T17:39:48.871Z,73.50
2018-02-05T17:42:16.995Z,72.30
2018-02-05T17:44:45.965Z,72.60
2018-02-05T17:47:14.141Z,72.60
2018-02-05T17:49:42.275Z,72.80
2018-02-05T17:52:11.193Z,73.00
2018-02-05T17:54:39.427Z,73.00
2018-02-05T17:57:08.460Z,72.80
2018-02-05T17:59:36.628Z,72.90
2018-02-05T18:02:04.782Z,73.20
2018-02-05T18:04:33.812Z,72.60
2018-02-05T18:07:02.003Z,72.50
2018-02-05T18:09:30.374Z,73.20
2018-02-05T18:11:58.531Z,73.70
2018-02-05T18:14:26.662Z,73.80
2018-02-05T18:16:54.873Z,73.20
2018-02-05T18:19:23.060Z,73.00
2018-02-05T18:21:51.176Z,73.20
2018-02-05T18:24:20.085Z,73.60
2018-02-05T18:26:48.992Z,73.00
2018-02-05T18:29:17.153Z,73.00
2018-02-05T18:31:45.277Z,73.40
2018-02-05T18:34:13.502Z,73.20
2018-02-05T18:36:42.376Z,73.20
2018-02-05T18:39:11.277Z,73.00
2018-02-05T18:41:40.211Z,72.60
2018-02-05T18:44:08.343Z,72.50
2018-02-05T18:46:37.236Z,73.00
2018-02-05T18:49:05.401Z,73.00
2018-02-05T18:51:35.139Z,73.20
2018-02-05T18:54:05.559Z,73.20
2018-02-05T18:56:45.541Z,73.00
2018-02-05T18:59:13.706Z,73.40
2018-02-05T19:01:41.850Z,73.20
2018-02-05T19:04:10.061Z,73.10
2018-02-05T19:06:38.191Z,72.90
2018-02-05T19:09:06.336Z,73.30
2018-02-05T19:11:35.223Z,74.20
2018-02-05T19:14:04.366Z,74.30
2018-02-05T19:16:32.531Z,73.70
2018-02-05T19:19:00.713Z,73.50
2018-02-05T19:21:28.820Z,72.90
2018-02-05T19:23:56.962Z,73.20
2018-02-05T19:26:25.237Z,73.50
2018-02-05T19:28:53.400Z,72.60
2018-02-05T19:31:21.554Z,73.20
2018-02-05T19:33:50.618Z,72.90
2018-02-05T19:36:19.015Z,72.90
2018-02-05T19:38:47.934Z,72.60
2018-02-05T19:41:16.096Z,72.70
2018-02-05T19:43:44.249Z,73.20
2018-02-05T19:46:13.273Z,73.20
2018-02-05T19:48:41.450Z,73.20
2018-02-05T19:51:09.623Z,73.50
2018-02-05T19:53:38.622Z,72.90
2018-02-05T19:56:06.805Z,72.90
2018-02-05T19:58:35.063Z,72.80
2018-02-05T20:01:04.199Z,72.70
2018-02-05T20:03:32.425Z,72.70
2018-02-05T20:06:01.415Z,72.80
2018-02-05T20:08:29.579Z,72.80
2018-02-05T20:10:57.767Z,73.10
2018-02-05T20:13:25.964Z,72.90
2018-02-05T20:15:54.212Z,72.70
2018-02-05T20:18:22.387Z,73.30
2018-02-05T20:20:50.604Z,73.60
2018-02-05T20:23:18.844Z,73.90
2018-02-05T20:25:47.037Z,73.60
2018-02-05T20:28:15.665Z,73.40
2018-02-05T20:30:44.170Z,73.50
2018-02-05T20:33:12.390Z,73.50
2018-02-05T20:35:40.569Z,73.10
2018-02-05T20:38:08.763Z,73.30
2018-02-05T20:40:37.729Z,73.50
2018-02-05T20:43:05.982Z,73.40
2018-02-05T20:45:34.211Z,72.90
2018-02-05T20:48:03.233Z,73.20
2018-02-05T20:50:31.446Z,73.20
2018-02-05T20:52:59.718Z,73.20
2018-02-05T20:55:28.106Z,73.10
2018-02-05T20:57:56.307Z,73.00
2018-02-05T21:00:24.502Z,73.50
2018-02-05T21:02:52.809Z,72.60
2018-02-05T21:05:20.955Z,73.20
2018-02-05T21:07:49.161Z,73.00
2018-02-05T21:10:17.338Z,72.80
2018-02-05T21:12:46.392Z,72.90
2018-02-05T21:15:14.987Z,73.10
2018-02-05T21:17:43.143Z,72.90
2018-02-05T21:20:11.317Z,72.90
2018-02-05T21:22:39.488Z,72.70
2018-02-05T21:25:07.638Z,73.20
2018-02-05T21:27:35.844Z,72.60
2018-02-05T21:30:04.004Z,72.50
2018-02-05T21:32:32.147Z,72.90
2018-02-05T21:35:01.076Z,72.40
2018-02-05T21:37:29.260Z,72.40
2018-02-05T21:39:57.431Z,72.60
2018-02-05T21:42:25.617Z,73.00
2018-02-05T21:44:53.763Z,72.40
2018-02-05T21:47:22.152Z,72.60
2018-02-05T21:49:52.944Z,72.70
2018-02-05T21:52:21.157Z,72.90
2018-02-05T21:54:49.443Z,72.30
2018-02-05T21:57:17.582Z,72.60
2018-02-05T21:59:45.731Z,72.30
2018-02-05T22:02:14.656Z,72.20
2018-02-05T22:04:42.850Z,72.20
2018-02-05T22:07:11.069Z,72.30
2018-02-05T22:09:39.249Z,72.70
2018-02-05T22:12:07.437Z,72.60
2018-02-05T22:14:35.590Z,72.60
2018-02-05T22:17:03.748Z,72.70
2018-02-05T22:19:31.932Z,72.60
2018-02-05T22:22:00.056Z,72.80
2018-02-05T22:24:28.211Z,72.60
2018-02-05T22:26:56.352Z,72.10
2018-02-05T22:29:25.270Z,72.20
2018-02-05T22:31:53.401Z,72.30
2018-02-05T22:34:21.643Z,72.10
2018-02-05T22:36:49.770Z,72.10
2018-02-05T22:39:18.686Z,72.30
2018-02-05T22:41:46.847Z,72.30
2018-02-05T22:44:15.735Z,72.30
2018-02-05T22:46:43.887Z,72.30
2018-02-05T22:49:13.033Z,72.60
2018-02-05T22:51:41.172Z,73.10
2018-02-05T22:54:09.362Z,72.30
2018-02-05T22:56:37.490Z,72.20
2018-02-05T22:59:05.631Z,72.60
2018-02-05T23:01:33.758Z,72.90
2018-02-05T23:04:01.911Z,72.80
2018-02-05T23:06:30.043Z,72.50
2018-02-05T23:08:58.232Z,72.70
2018-02-05T23:11:26.367Z,73.00
2018-02-05T23:13:54.509Z,73.00
2018-02-05T23:16:23.404Z,72.90
2018-02-05T23:18:52.303Z,73.00
2018-02-05T23:21:21.204Z,73.10
2018-02-05T23:23:49.343Z,73.10
2018-02-05T23:26:17.502Z,73.70
2018-02-05T23:28:45.635Z,73.50
2018-02-05T23:31:13.775Z,73.40
2018-02-05T23:33:42.672Z,73.90
2018-02-05T23:36:11.583Z,73.50
2018-02-05T23:38:39.721Z,73.50
2018-02-05T23:41:08.630Z,73.80
2018-02-05T23:43:37.550Z,73.60
2018-02-05T23:46:05.683Z,73.70
2018-02-05T23:48:34.629Z,73.90
2018-02-05T23:51:03.536Z,74.00
2018-02-05T23:53:31.667Z,74.10
2018-02-05T23:55:59.809Z,73.80
2018-02-05T23:58:28.711Z,74.40
